createdAt,value
2018-03-16T00:00:39.665Z,8.70
2018-03-16T00:03:05.871Z,8.70
2018-03-16T00:05:33.914Z,8.70
2018-03-16T00:08:01.793Z,8.60
2018-03-16T00:10:28.129Z,8.60
2018-03-16T00:12:54.829Z,8.50
2018-03-16T00:15:21.780Z,8.50
2018-03-16T00:17:49.466Z,8.40
2018-03-16T00:20:17.273Z,8.40
2018-03-16T00:22:43.470Z,8.30
2018-03-16T00:25:09.787Z,8.30
2018-03-16T00:27:38.456Z,8.30
2018-03-16T00:30:04.734Z,8.30
2018-03-16T00:32:31.899Z,8.30
2018-03-16T00:44:44.862Z,8.20
2018-03-16T00:47:11.205Z,8.10
2018-03-16T00:49:38.196Z,8.10
2018-03-16T00:52:04.496Z,8.10
2018-03-16T00:54:32.607Z,8.10
2018-03-16T00:57:02.098Z,8.00
2018-03-16T00:59:29.215Z,8.10
2018-03-16T01:01:55.514Z,8.10
2018-03-16T01:04:22.524Z,8.20
2018-03-16T01:16:33.862Z,8.30
2018-03-16T01:19:01.153Z,8.40
2018-03-16T01:21:28.405Z,8.30
2018-03-16T01:23:55.458Z,8.30
2018-03-16T01:26:23.876Z,8.40
2018-03-16T01:28:51.061Z,8.30
2018-03-16T01:31:17.468Z,8.40
2018-03-16T01:33:45.094Z,8.50
2018-03-16T01:36:12.298Z,8.50
2018-03-16T01:38:40.264Z,8.60
2018-03-16T01:41:07.451Z,8.60
2018-03-16T01:53:19.469Z,8.30
2018-03-16T01:55:46.701Z,8.30
2018-03-16T01:58:13.768Z,8.30
2018-03-16T02:00:40.799Z,8.30
2018-03-16T02:03:08.899Z,8.20
2018-03-16T02:05:35.119Z,8.30
2018-03-16T02:08:02.055Z,8.40
2018-03-16T02:10:28.293Z,8.40
2018-03-16T02:12:54.682Z,8.40
2018-03-16T02:15:23.488Z,8.40
2018-03-16T02:17:50.461Z,8.30
2018-03-16T02:20:16.701Z,8.50
2018-03-16T02:22:43.698Z,8.50
2018-03-16T02:25:10.628Z,8.50
2018-03-16T02:27:37.494Z,8.50
2018-03-16T02:30:05.186Z,8.50
2018-03-16T02:32:31.787Z,8.50
2018-03-16T02:34:59.681Z,8.50
2018-03-16T02:37:27.184Z,8.50
2018-03-16T02:39:54.112Z,8.50
2018-03-16T02:42:21.157Z,8.50
2018-03-16T02:44:47.383Z,8.40
2018-03-16T02:47:15.383Z,8.40
2018-03-16T02:49:42.350Z,8.40
2018-03-16T02:52:12.326Z,8.40
2018-03-16T02:54:38.606Z,8.40
2018-03-16T02:57:04.961Z,8.40
2018-03-16T02:59:32.004Z,8.50
2018-03-16T03:01:59.908Z,8.60
2018-03-16T03:04:26.127Z,8.60
2018-03-16T03:06:52.382Z,8.60
2018-03-16T03:09:19.424Z,8.70
2018-03-16T03:11:46.418Z,8.70
2018-03-16T03:14:14.650Z,8.70
2018-03-16T03:16:41.416Z,8.70
2018-03-16T03:19:09.962Z,8.70
2018-03-16T03:21:36.260Z,8.70
2018-03-16T03:24:03.429Z,8.70
2018-03-16T03:26:29.620Z,8.80
2018-03-16T03:28:56.639Z,8.60
2018-03-16T03:31:24.060Z,8.60
2018-03-16T03:33:53.611Z,8.60
2018-03-16T03:36:19.781Z,8.60
2018-03-16T03:38:46.620Z,8.60
2018-03-16T03:41:12.855Z,8.60
2018-03-16T03:43:39.170Z,8.60
2018-03-16T03:46:06.325Z,8.60
2018-03-16T03:48:33.500Z,8.50
2018-03-16T03:51:01.551Z,8.60
2018-03-16T03:53:27.864Z,8.50
2018-03-16T03:55:55.650Z,8.60
2018-03-16T03:58:21.827Z,8.60
2018-03-16T04:00:48.025Z,8.60
2018-03-16T04:03:14.577Z,8.60
2018-03-16T04:05:41.767Z,8.70
2018-03-16T04:08:09.642Z,8.70
2018-03-16T04:10:36.693Z,8.70
2018-03-16T04:13:03.624Z,8.70
2018-03-16T04:15:30.684Z,8.70
2018-03-16T04:17:57.739Z,8.70
2018-03-16T04:20:24.969Z,8.70
2018-03-16T04:22:52.422Z,8.70
2018-03-16T04:25:19.515Z,8.70
2018-03-16T04:27:46.013Z,8.70
2018-03-16T04:30:12.215Z,8.70
2018-03-16T04:32:39.474Z,8.80
2018-03-16T04:35:06.476Z,8.80
2018-03-16T04:37:32.667Z,8.80
2018-03-16T04:39:58.972Z,8.70
2018-03-16T04:42:25.160Z,8.60
2018-03-16T04:44:51.409Z,8.70
2018-03-16T04:47:18.049Z,8.60
2018-03-16T04:49:44.359Z,8.60
2018-03-16T05:01:55.605Z,8.70
2018-03-16T05:04:21.840Z,8.70
2018-03-16T05:06:48.068Z,8.70
2018-03-16T05:09:14.317Z,8.70
2018-03-16T05:11:40.544Z,8.60
2018-03-16T05:14:07.160Z,8.60
2018-03-16T05:16:33.395Z,8.60
2018-03-16T05:18:59.631Z,8.60
2018-03-16T05:21:26.580Z,8.70
2018-03-16T05:23:54.720Z,8.60
2018-03-16T05:26:21.854Z,8.70
2018-03-16T05:28:48.084Z,8.60
2018-03-16T05:31:14.316Z,8.70
2018-03-16T05:33:41.432Z,8.70
2018-03-16T05:36:07.723Z,8.70
2018-03-16T05:38:34.925Z,8.70
2018-03-16T05:41:01.109Z,8.70
2018-03-16T05:43:27.347Z,8.70
2018-03-16T05:45:54.498Z,8.80
2018-03-16T05:48:20.788Z,8.70
2018-03-16T05:50:47.852Z,8.80
2018-03-16T05:53:14.877Z,8.80
2018-03-16T05:55:41.059Z,8.80
2018-03-16T05:58:08.268Z,8.80
2018-03-16T06:00:36.206Z,8.80
2018-03-16T06:03:02.420Z,8.80
2018-03-16T06:05:28.643Z,8.80
2018-03-16T06:07:56.647Z,8.80
2018-03-16T06:10:23.903Z,8.80
2018-03-16T06:12:51.498Z,8.80
2018-03-16T06:15:19.556Z,8.70
2018-03-16T06:17:46.567Z,8.80
2018-03-16T06:20:13.725Z,8.80
2018-03-16T06:22:40.290Z,8.80
2018-03-16T06:25:07.241Z,8.70
2018-03-16T06:27:34.972Z,8.80
2018-03-16T06:30:01.189Z,8.80
2018-03-16T06:32:27.450Z,8.70
2018-03-16T06:34:54.258Z,8.80
2018-03-16T06:37:21.507Z,8.80
2018-03-16T06:39:47.773Z,8.80
2018-03-16T06:42:13.957Z,8.80
2018-03-16T06:44:40.402Z,8.90
2018-03-16T06:47:07.653Z,8.80
2018-03-16T06:49:33.869Z,8.80
2018-03-16T07:01:45.465Z,8.80
2018-03-16T07:04:11.704Z,8.90
2018-03-16T07:06:38.074Z,9.00
2018-03-16T07:09:04.522Z,8.90
2018-03-16T07:11:30.837Z,9.10
2018-03-16T07:13:57.060Z,9.10
2018-03-16T07:16:23.304Z,9.10
2018-03-16T07:18:49.522Z,9.10
2018-03-16T07:21:15.781Z,9.10
2018-03-16T07:23:42.006Z,9.00
2018-03-16T07:26:09.005Z,9.00
2018-03-16T07:28:36.469Z,9.00
2018-03-16T07:31:03.655Z,9.00
2018-03-16T07:33:30.590Z,9.00
2018-03-16T07:35:56.867Z,9.00
2018-03-16T07:38:23.423Z,9.00
2018-03-16T07:40:50.422Z,9.10
2018-03-16T07:43:16.856Z,9.10
2018-03-16T07:45:49.271Z,9.10
2018-03-16T07:48:17.581Z,9.40
2018-03-16T07:50:45.082Z,9.40
2018-03-16T07:53:12.065Z,9.40
2018-03-16T07:55:39.903Z,9.40
2018-03-16T07:58:06.990Z,9.40
2018-03-16T08:00:34.981Z,9.40
2018-03-16T08:03:02.049Z,9.40
2018-03-16T08:05:28.296Z,9.40
2018-03-16T08:07:55.492Z,9.30
2018-03-16T08:10:22.390Z,9.30
2018-03-16T08:12:48.593Z,9.30
2018-03-16T08:15:15.583Z,9.40
2018-03-16T08:17:42.673Z,9.40
2018-03-16T08:20:09.057Z,9.40
2018-03-16T08:22:37.258Z,9.30
2018-03-16T08:25:04.254Z,9.40
2018-03-16T08:27:32.349Z,9.40
2018-03-16T08:29:58.534Z,9.40
2018-03-16T08:32:24.776Z,9.40
2018-03-16T08:34:56.251Z,9.40
2018-03-16T08:37:23.514Z,9.50
2018-03-16T08:39:49.779Z,9.40
2018-03-16T08:42:16.785Z,9.30
2018-03-16T08:54:28.166Z,9.30
2018-03-16T08:56:54.771Z,9.50
2018-03-16T08:59:21.030Z,9.60
2018-03-16T09:01:47.253Z,9.60
2018-03-16T09:04:14.900Z,9.80
2018-03-16T09:06:41.238Z,9.80
2018-03-16T09:09:09.068Z,9.80
2018-03-16T09:11:35.303Z,9.90
2018-03-16T09:14:01.743Z,10.10
2018-03-16T09:16:28.059Z,10.30
2018-03-16T09:18:54.302Z,10.30
2018-03-16T09:21:21.410Z,10.20
2018-03-16T09:23:48.430Z,10.40
2018-03-16T09:26:14.624Z,10.40
2018-03-16T09:28:40.930Z,10.40
2018-03-16T09:31:08.191Z,10.50
2018-03-16T09:33:36.114Z,10.40
2018-03-16T09:36:04.889Z,10.40
2018-03-16T09:38:31.742Z,10.40
2018-03-16T09:41:00.796Z,10.30
2018-03-16T09:43:27.058Z,10.40
2018-03-16T09:45:54.139Z,10.20
2018-03-16T09:48:21.521Z,10.20
2018-03-16T09:50:48.702Z,10.20
2018-03-16T09:53:26.510Z,10.30
2018-03-16T09:55:52.768Z,10.30
2018-03-16T09:58:19.777Z,10.40
2018-03-16T10:00:45.961Z,10.50
2018-03-16T10:03:13.054Z,10.60
2018-03-16T10:05:40.146Z,10.70
2018-03-16T10:08:07.104Z,10.70
2018-03-16T10:10:34.238Z,10.70
2018-03-16T10:13:01.594Z,10.80
2018-03-16T10:15:28.714Z,10.80
2018-03-16T10:18:00.332Z,10.80
2018-03-16T10:20:28.455Z,10.90
2018-03-16T10:22:55.571Z,10.90
2018-03-16T10:25:22.691Z,11.10
2018-03-16T10:27:50.439Z,11.20
2018-03-16T10:30:17.502Z,11.30
2018-03-16T10:32:45.883Z,11.30
2018-03-16T10:35:13.462Z,11.10
2018-03-16T10:47:25.758Z,10.80
2018-03-16T10:49:54.200Z,10.80
2018-03-16T10:52:20.444Z,10.80
2018-03-16T10:54:46.716Z,10.70
2018-03-16T10:57:13.548Z,10.70
2018-03-16T10:59:39.794Z,10.70
2018-03-16T11:02:13.133Z,10.60
2018-03-16T11:04:39.355Z,10.60
2018-03-16T11:07:09.946Z,10.70
2018-03-16T11:09:37.115Z,10.70
2018-03-16T11:12:03.358Z,10.70
2018-03-16T11:14:31.081Z,10.70
2018-03-16T11:16:58.442Z,10.60
2018-03-16T11:19:24.660Z,10.70
2018-03-16T11:21:51.722Z,10.70
2018-03-16T11:24:18.028Z,10.80
2018-03-16T11:26:44.686Z,10.90
2018-03-16T11:29:10.959Z,10.80
2018-03-16T11:31:39.863Z,10.80
2018-03-16T11:34:07.589Z,10.90
2018-03-16T11:36:34.676Z,10.90
2018-03-16T11:39:00.882Z,10.90
2018-03-16T11:41:28.061Z,10.90
2018-03-16T11:43:54.277Z,10.90
2018-03-16T11:46:20.443Z,11.10
2018-03-16T11:48:46.656Z,11.30
2018-03-16T11:51:12.860Z,11.60
2018-03-16T11:53:39.763Z,11.70
2018-03-16T11:56:06.040Z,11.70
2018-03-16T11:58:33.081Z,11.80
2018-03-16T12:01:00.044Z,12.10
2018-03-16T12:03:26.240Z,12.00
2018-03-16T12:05:52.874Z,12.10
2018-03-16T12:08:19.102Z,12.20
2018-03-16T12:10:46.443Z,12.40
2018-03-16T12:13:13.501Z,12.50
2018-03-16T12:15:39.778Z,12.70
2018-03-16T12:18:07.209Z,13.00
2018-03-16T12:20:34.177Z,13.30
2018-03-16T12:23:00.447Z,13.30
2018-03-16T12:25:26.789Z,13.40
2018-03-16T12:27:54.065Z,13.30
2018-03-16T12:30:22.350Z,13.20
2018-03-16T12:32:49.788Z,13.20
2018-03-16T12:35:16.058Z,13.10
2018-03-16T12:37:42.335Z,13.00
2018-03-16T12:40:10.178Z,13.00
2018-03-16T12:42:36.623Z,13.00
2018-03-16T12:45:03.576Z,12.80
2018-03-16T12:47:30.080Z,12.70
2018-03-16T12:49:56.374Z,12.60
2018-03-16T12:52:23.497Z,12.60
2018-03-16T12:54:50.627Z,12.40
2018-03-16T12:57:16.840Z,12.30
2018-03-16T12:59:43.074Z,12.30
2018-03-16T13:02:10.399Z,12.00
2018-03-16T13:04:38.236Z,11.80
2018-03-16T13:07:05.339Z,11.60
2018-03-16T13:09:31.590Z,11.50
2018-03-16T13:11:59.558Z,11.40
2018-03-16T13:14:25.997Z,11.30
2018-03-16T13:19:20.632Z,11.20
2018-03-16T13:21:46.960Z,11.20
2018-03-16T13:24:13.270Z,11.20
2018-03-16T13:26:40.538Z,11.20
2018-03-16T13:29:07.530Z,11.20
2018-03-16T13:31:33.877Z,11.20
2018-03-16T13:34:00.165Z,11.20
2018-03-16T13:36:27.274Z,11.20
2018-03-16T13:38:53.657Z,11.20
2018-03-16T13:41:19.868Z,11.20
2018-03-16T13:43:46.650Z,11.20
2018-03-16T13:46:12.948Z,11.20
2018-03-16T13:48:39.234Z,11.30
2018-03-16T13:51:06.617Z,11.20
2018-03-16T13:53:32.906Z,11.10
2018-03-16T13:55:59.158Z,11.10
2018-03-16T13:58:25.396Z,11.10
2018-03-16T14:00:51.895Z,11.20
2018-03-16T14:03:18.084Z,11.10
2018-03-16T14:05:44.377Z,11.30
2018-03-16T14:08:10.752Z,11.30
2018-03-16T14:10:37.952Z,11.40
2018-03-16T14:13:04.249Z,11.40
2018-03-16T14:15:31.296Z,11.30
2018-03-16T14:17:57.541Z,11.30
2018-03-16T14:20:23.824Z,11.30
2018-03-16T14:22:50.088Z,11.20
2018-03-16T14:25:17.279Z,11.20
2018-03-16T14:27:44.467Z,11.30
2018-03-16T14:30:10.767Z,11.30
2018-03-16T14:32:37.020Z,11.50
2018-03-16T14:35:03.443Z,11.50
2018-03-16T14:37:30.332Z,11.60
2018-03-16T14:39:56.775Z,12.00
2018-03-16T14:42:23.247Z,12.10
2018-03-16T14:44:49.568Z,12.20
2018-03-16T14:47:15.937Z,12.20
2018-03-16T14:49:43.518Z,12.20
2018-03-16T14:52:10.279Z,12.10
2018-03-16T14:54:37.471Z,11.80
2018-03-16T14:57:03.912Z,11.90
2018-03-16T14:59:31.091Z,11.70
2018-03-16T15:01:58.397Z,11.60
2018-03-16T15:04:24.704Z,11.60
2018-03-16T15:06:51.875Z,11.30
2018-03-16T15:09:19.077Z,11.20
2018-03-16T15:11:46.279Z,11.10
2018-03-16T15:14:13.609Z,11.10
2018-03-16T15:16:39.906Z,11.00
2018-03-16T15:19:06.197Z,11.00
2018-03-16T15:21:32.502Z,11.00
2018-03-16T15:23:58.724Z,10.90
2018-03-16T15:26:28.613Z,10.80
2018-03-16T15:28:55.654Z,10.80
2018-03-16T15:31:23.493Z,10.80
2018-03-16T15:33:50.723Z,10.80
2018-03-16T15:36:16.955Z,10.90
2018-03-16T15:38:44.992Z,11.10
2018-03-16T15:41:14.042Z,11.20
2018-03-16T15:43:41.971Z,11.20
2018-03-16T15:46:08.614Z,11.50
2018-03-16T15:48:35.818Z,11.70
2018-03-16T15:51:02.151Z,11.40
2018-03-16T15:53:28.414Z,11.30
2018-03-16T15:55:55.562Z,11.30
2018-03-16T15:58:21.829Z,11.20
2018-03-16T16:00:48.543Z,11.40
2018-03-16T16:03:14.854Z,11.30
2018-03-16T16:05:41.891Z,11.30
2018-03-16T16:08:09.142Z,11.20
2018-03-16T16:10:35.447Z,11.00
2018-03-16T16:13:01.794Z,11.00
2018-03-16T16:15:28.052Z,11.00
2018-03-16T16:18:00.346Z,11.00
2018-03-16T16:20:27.804Z,11.00
2018-03-16T16:22:56.161Z,11.00
2018-03-16T16:25:24.925Z,10.90
2018-03-16T16:27:52.506Z,10.90
2018-03-16T16:30:19.611Z,10.90
2018-03-16T16:32:47.738Z,10.90
2018-03-16T16:35:14.849Z,10.70
2018-03-16T16:37:42.392Z,10.80
2018-03-16T16:40:09.237Z,10.80
2018-03-16T16:42:35.468Z,10.80
2018-03-16T16:58:01.705Z,10.30
2018-03-16T17:00:30.565Z,10.30
2018-03-16T17:02:58.438Z,10.30
2018-03-16T17:05:25.754Z,10.30
2018-03-16T17:07:52.730Z,10.20
2018-03-16T17:10:20.256Z,10.20
2018-03-16T17:12:47.187Z,10.10
2018-03-16T17:15:13.487Z,10.10
2018-03-16T17:17:41.966Z,10.10
2018-03-16T17:20:10.059Z,10.20
2018-03-16T17:22:37.152Z,10.20
2018-03-16T17:25:03.398Z,10.40
2018-03-16T17:27:30.625Z,10.20
2018-03-16T17:29:59.537Z,10.20
2018-03-16T17:42:11.635Z,10.10
2018-03-16T17:44:37.853Z,10.30
2018-03-16T17:47:04.143Z,10.60
2018-03-16T17:49:31.143Z,10.60
2018-03-16T17:51:57.725Z,10.60
2018-03-16T17:54:26.017Z,10.40
2018-03-16T17:56:52.611Z,10.40
2018-03-16T17:59:18.861Z,10.10
2018-03-16T18:01:46.038Z,10.00
2018-03-16T18:04:13.028Z,9.80
2018-03-16T18:06:39.672Z,9.80
2018-03-16T18:09:06.067Z,9.60
2018-03-16T18:11:33.904Z,9.50
2018-03-16T18:14:01.376Z,9.40
2018-03-16T18:16:27.634Z,9.40
2018-03-16T18:18:54.019Z,9.20
2018-03-16T18:21:21.091Z,9.20
2018-03-16T18:23:47.343Z,9.20
2018-03-16T18:26:13.655Z,9.20
2018-03-16T18:28:41.024Z,9.20
2018-03-16T18:31:07.307Z,9.10
2018-03-16T18:33:33.595Z,9.00
2018-03-16T18:35:59.954Z,9.00
2018-03-16T18:38:27.989Z,9.00
2018-03-16T18:40:55.561Z,9.00
2018-03-16T18:43:21.900Z,9.00
2018-03-16T18:45:48.752Z,8.90
2018-03-16T18:48:16.198Z,8.90
2018-03-16T18:50:43.725Z,8.90
2018-03-16T18:53:10.131Z,8.90
2018-03-16T18:55:36.500Z,8.70
2018-03-16T18:58:02.794Z,8.70
2018-03-16T19:00:30.017Z,8.60
2018-03-16T19:02:57.923Z,8.50
2018-03-16T19:05:24.943Z,8.50
2018-03-16T19:07:53.117Z,8.40
2018-03-16T19:10:19.359Z,8.50
2018-03-16T19:12:47.167Z,8.40
2018-03-16T19:15:13.572Z,8.60
2018-03-16T19:17:40.987Z,8.60
2018-03-16T19:20:10.712Z,8.60
2018-03-16T19:22:37.430Z,8.70
2018-03-16T19:25:04.101Z,8.80
2018-03-16T19:27:31.870Z,8.70
2018-03-16T19:29:59.070Z,8.70
2018-03-16T19:32:27.315Z,8.70
2018-03-16T19:34:54.323Z,8.70
2018-03-16T19:47:05.682Z,8.60
2018-03-16T19:49:32.152Z,8.50
2018-03-16T19:52:00.351Z,8.50
2018-03-16T19:54:29.564Z,8.50
2018-03-16T19:56:57.642Z,8.40
2018-03-16T19:59:25.730Z,8.40
2018-03-16T20:01:52.061Z,8.30
2018-03-16T20:04:18.374Z,8.30
2018-03-16T20:06:45.302Z,8.30
2018-03-16T20:09:12.522Z,8.30
2018-03-16T20:11:39.751Z,8.40
2018-03-16T20:14:05.985Z,8.30
2018-03-16T20:16:34.104Z,8.40
2018-03-16T20:19:01.252Z,8.30
2018-03-16T20:21:27.934Z,8.30
2018-03-16T20:23:54.219Z,8.30
2018-03-16T20:26:20.822Z,8.30
2018-03-16T20:28:47.846Z,8.30
2018-03-16T20:31:14.822Z,8.20
2018-03-16T20:33:43.544Z,8.30
2018-03-16T20:36:11.035Z,8.20
2018-03-16T20:41:05.293Z,8.10
2018-03-16T20:43:32.580Z,8.10
2018-03-16T20:45:59.714Z,8.10
2018-03-16T20:48:25.965Z,8.10
2018-03-16T20:50:52.241Z,8.00
2018-03-16T20:53:19.213Z,8.00
2018-03-16T21:05:25.572Z,7.90
2018-03-16T21:07:51.861Z,7.80
2018-03-16T21:10:18.931Z,7.80
2018-03-16T21:12:45.352Z,7.80
2018-03-16T21:15:13.635Z,7.90
2018-03-16T21:17:40.376Z,7.80
2018-03-16T21:20:06.767Z,7.80
2018-03-16T21:22:33.020Z,7.90
2018-03-16T21:25:00.081Z,7.90
2018-03-16T21:27:26.505Z,7.80
2018-03-16T21:29:54.368Z,7.80
2018-03-16T21:32:21.341Z,7.80
2018-03-16T21:34:48.925Z,7.80
2018-03-16T21:37:15.555Z,7.70
2018-03-16T21:39:42.568Z,7.70
2018-03-16T21:42:09.120Z,7.70
2018-03-16T21:44:37.020Z,7.60
2018-03-16T21:47:03.346Z,7.50
2018-03-16T21:49:29.676Z,7.60
2018-03-16T21:51:55.961Z,7.60
2018-03-16T21:54:22.246Z,7.60
2018-03-16T21:56:48.497Z,7.50
2018-03-16T21:59:14.741Z,7.50
2018-03-16T22:01:40.961Z,7.50
2018-03-16T22:04:07.270Z,7.40
2018-03-16T22:06:34.706Z,7.40
2018-03-16T22:09:00.985Z,7.30
2018-03-16T22:11:28.217Z,7.30
2018-03-16T22:13:55.252Z,7.20
2018-03-16T22:16:21.562Z,7.30
2018-03-16T22:18:47.859Z,7.30
2018-03-16T22:21:14.253Z,7.30
2018-03-16T22:23:40.538Z,7.20
2018-03-16T22:26:06.782Z,7.10
2018-03-16T22:28:33.479Z,7.20
2018-03-16T22:30:59.800Z,7.20
2018-03-16T22:33:26.603Z,7.20
2018-03-16T22:35:52.973Z,7.20
2018-03-16T22:38:19.203Z,7.10
2018-03-16T22:40:45.483Z,7.00
2018-03-16T22:43:11.737Z,6.90
2018-03-16T22:45:38.052Z,6.90
2018-03-16T22:48:05.355Z,6.80
2018-03-16T22:50:31.631Z,6.70
2018-03-16T22:52:57.847Z,6.70
2018-03-16T22:55:24.889Z,6.70
2018-03-16T22:57:52.058Z,6.70
2018-03-16T23:00:19.335Z,6.60
2018-03-16T23:02:46.503Z,6.60
2018-03-16T23:05:12.930Z,6.50
2018-03-16T23:07:40.461Z,6.60
2018-03-16T23:10:09.456Z,6.50
2018-03-16T23:12:35.758Z,6.50
2018-03-16T23:15:02.809Z,6.40
2018-03-16T23:17:31.037Z,6.40
2018-03-16T23:19:58.023Z,6.40
2018-03-16T23:22:25.562Z,6.40
2018-03-16T23:24:52.600Z,6.40
2018-03-16T23:27:18.937Z,6.30
2018-03-16T23:29:46.203Z,6.30
2018-03-16T23:32:12.754Z,6.10
2018-03-16T23:34:40.273Z,6.20
2018-03-16T23:37:11.040Z,6.20
2018-03-16T23:39:37.265Z,6.20
2018-03-16T23:42:04.328Z,6.10
2018-03-16T23:44:30.646Z,6.10
2018-03-16T23:46:56.852Z,6.20
2018-03-16T23:49:25.005Z,6.10
2018-03-16T23:51:52.005Z,6.00
2018-03-16T23:54:20.223Z,6.00
2018-03-16T23:56:47.001Z,6.00
2018-03-16T23:59:14.462Z,5.90
